sensor_id;sensor_type;location;lat;lon;timestamp;P1;durP1;ratioP1;P2;durP2;ratioP2
28756;SDS011;44294;48.282;14.282;2023-06-10T00:02:21;0.60;;;0.60;;
28756;SDS011;44294;48.282;14.282;2023-06-10T00:05:09;0.60;;;0.60;;
28756;SDS011;44294;48.282;14.282;2023-06-10T00:07:56;0.60;;;0.60;;
28756;SDS011;44294;48.282;14.282;2023-06-10T00:10:44;0.60;;;0.60;;
28756;SDS011;44294;48.282;14.282;2023-06-10T00:13:31;0.70;;;0.70;;
28756;SDS011;44294;48.282;14.282;2023-06-10T00:16:19;0.70;;;0.70;;
28756;SDS011;44294;48.282;14.282;2023-06-10T00:19:06;0.70;;;0.70;;
28756;SDS011;44294;48.282;14.282;2023-06-10T00:21:54;0.63;;;0.63;;
28756;SDS011;44294;48.282;14.282;2023-06-10T00:24:41;0.70;;;0.70;;
28756;SDS011;44294;48.282;14.282;2023-06-10T00:27:29;0.70;;;0.70;;
28756;SDS011;44294;48.282;14.282;2023-06-10T00:30:18;0.60;;;0.60;;
28756;SDS011;44294;48.282;14.282;2023-06-10T00:33:05;0.70;;;0.70;;
28756;SDS011;44294;48.282;14.282;2023-06-10T00:35:52;0.60;;;0.60;;
28756;SDS011;44294;48.282;14.282;2023-06-10T00:38:39;0.60;;;0.60;;
28756;SDS011;44294;48.282;14.282;2023-06-10T00:41:27;0.60;;;0.60;;
28756;SDS011;44294;48.282;14.282;2023-06-10T00:44:15;0.70;;;0.70;;
28756;SDS011;44294;48.282;14.282;2023-06-10T00:47:03;0.60;;;0.60;;
28756;SDS011;44294;48.282;14.282;2023-06-10T00:49:50;0.63;;;0.63;;
28756;SDS011;44294;48.282;14.282;2023-06-10T00:52:37;0.70;;;0.70;;
28756;SDS011;44294;48.282;14.282;2023-06-10T00:55:25;0.60;;;0.60;;
28756;SDS011;44294;48.282;14.282;2023-06-10T00:58:13;0.60;;;0.60;;
28756;SDS011;44294;48.282;14.282;2023-06-10T01:01:01;0.60;;;0.60;;
28756;SDS011;44294;48.282;14.282;2023-06-10T01:03:50;0.70;;;0.70;;
28756;SDS011;44294;48.282;14.282;2023-06-10T01:09:54;0.70;;;0.70;;
28756;SDS011;44294;48.282;14.282;2023-06-10T01:15:35;0.60;;;0.60;;
28756;SDS011;44294;48.282;14.282;2023-06-10T01:18:22;0.70;;;0.70;;
28756;SDS011;44294;48.282;14.282;2023-06-10T01:21:13;0.60;;;0.60;;
28756;SDS011;44294;48.282;14.282;2023-06-10T01:23:59;0.70;;;0.70;;
28756;SDS011;44294;48.282;14.282;2023-06-10T01:26:47;0.70;;;0.70;;
28756;SDS011;44294;48.282;14.282;2023-06-10T01:29:37;0.70;;;0.70;;
28756;SDS011;44294;48.282;14.282;2023-06-10T01:32:34;0.70;;;0.70;;
28756;SDS011;44294;48.282;14.282;2023-06-10T01:35:24;0.70;;;0.70;;
28756;SDS011;44294;48.282;14.282;2023-06-10T01:38:12;0.70;;;0.70;;
28756;SDS011;44294;48.282;14.282;2023-06-10T01:41:01;0.70;;;0.70;;
28756;SDS011;44294;48.282;14.282;2023-06-10T01:43:49;0.60;;;0.60;;
28756;SDS011;44294;48.282;14.282;2023-06-10T01:46:36;0.60;;;0.60;;
28756;SDS011;44294;48.282;14.282;2023-06-10T01:49:23;0.60;;;0.60;;
28756;SDS011;44294;48.282;14.282;2023-06-10T01:52:12;0.70;;;0.70;;
28756;SDS011;44294;48.282;14.282;2023-06-10T01:55:00;0.70;;;0.70;;
28756;SDS011;44294;48.282;14.282;2023-06-10T01:57:47;0.70;;;0.70;;
28756;SDS011;44294;48.282;14.282;2023-06-10T02:00:34;0.67;;;0.67;;
28756;SDS011;44294;48.282;14.282;2023-06-10T02:03:21;0.70;;;0.70;;
28756;SDS011;44294;48.282;14.282;2023-06-10T02:06:09;0.70;;;0.70;;
28756;SDS011;44294;48.282;14.282;2023-06-10T02:08:56;0.60;;;0.60;;
28756;SDS011;44294;48.282;14.282;2023-06-10T02:11:43;0.70;;;0.70;;
28756;SDS011;44294;48.282;14.282;2023-06-10T02:14:31;0.63;;;0.63;;
28756;SDS011;44294;48.282;14.282;2023-06-10T02:17:19;0.60;;;0.60;;
28756;SDS011;44294;48.282;14.282;2023-06-10T02:20:07;0.60;;;0.60;;
28756;SDS011;44294;48.282;14.282;2023-06-10T02:22:56;0.70;;;0.70;;
28756;SDS011;44294;48.282;14.282;2023-06-10T02:25:43;0.70;;;0.70;;
28756;SDS011;44294;48.282;14.282;2023-06-10T02:28:31;0.70;;;0.70;;
28756;SDS011;44294;48.282;14.282;2023-06-10T02:31:18;0.60;;;0.60;;
28756;SDS011;44294;48.282;14.282;2023-06-10T02:34:05;0.70;;;0.70;;
28756;SDS011;44294;48.282;14.282;2023-06-10T02:36:53;0.70;;;0.70;;
28756;SDS011;44294;48.282;14.282;2023-06-10T02:39:40;0.80;;;0.80;;
28756;SDS011;44294;48.282;14.282;2023-06-10T02:42:27;0.70;;;0.70;;
28756;SDS011;44294;48.282;14.282;2023-06-10T02:45:14;0.70;;;0.70;;
28756;SDS011;44294;48.282;14.282;2023-06-10T02:48:03;0.70;;;0.70;;
28756;SDS011;44294;48.282;14.282;2023-06-10T02:50:50;0.70;;;0.70;;
28756;SDS011;44294;48.282;14.282;2023-06-10T02:53:37;0.70;;;0.70;;
28756;SDS011;44294;48.282;14.282;2023-06-10T02:56:25;0.70;;;0.70;;
28756;SDS011;44294;48.282;14.282;2023-06-10T02:59:13;0.70;;;0.70;;
28756;SDS011;44294;48.282;14.282;2023-06-10T03:02:00;0.70;;;0.70;;
28756;SDS011;44294;48.282;14.282;2023-06-10T03:04:47;0.80;;;0.80;;
28756;SDS011;44294;48.282;14.282;2023-06-10T03:07:36;0.73;;;0.73;;
28756;SDS011;44294;48.282;14.282;2023-06-10T03:10:24;0.70;;;0.70;;
28756;SDS011;44294;48.282;14.282;2023-06-10T03:13:12;0.70;;;0.70;;
28756;SDS011;44294;48.282;14.282;2023-06-10T03:16:00;0.70;;;0.70;;
28756;SDS011;44294;48.282;14.282;2023-06-10T03:18:49;0.70;;;0.70;;
28756;SDS011;44294;48.282;14.282;2023-06-10T03:21:36;0.70;;;0.70;;
28756;SDS011;44294;48.282;14.282;2023-06-10T03:24:24;0.70;;;0.70;;
28756;SDS011;44294;48.282;14.282;2023-06-10T03:27:12;0.70;;;0.70;;
28756;SDS011;44294;48.282;14.282;2023-06-10T03:29:59;0.70;;;0.70;;
28756;SDS011;44294;48.282;14.282;2023-06-10T03:32:47;0.70;;;0.70;;
28756;SDS011;44294;48.282;14.282;2023-06-10T03:35:35;0.70;;;0.70;;
28756;SDS011;44294;48.282;14.282;2023-06-10T03:38:22;0.70;;;0.70;;
28756;SDS011;44294;48.282;14.282;2023-06-10T03:41:09;0.70;;;0.70;;
28756;SDS011;44294;48.282;14.282;2023-06-10T03:43:57;0.70;;;0.70;;
28756;SDS011;44294;48.282;14.282;2023-06-10T03:46:44;0.70;;;0.70;;
28756;SDS011;44294;48.282;14.282;2023-06-10T03:49:31;0.70;;;0.70;;
28756;SDS011;44294;48.282;14.282;2023-06-10T03:52:19;0.70;;;0.70;;
28756;SDS011;44294;48.282;14.282;2023-06-10T03:55:06;0.70;;;0.70;;
28756;SDS011;44294;48.282;14.282;2023-06-10T03:57:54;0.70;;;0.70;;
28756;SDS011;44294;48.282;14.282;2023-06-10T04:00:41;0.70;;;0.70;;
28756;SDS011;44294;48.282;14.282;2023-06-10T04:03:29;0.70;;;0.70;;
28756;SDS011;44294;48.282;14.282;2023-06-10T04:06:16;0.80;;;0.80;;
28756;SDS011;44294;48.282;14.282;2023-06-10T04:09:03;0.70;;;0.70;;
28756;SDS011;44294;48.282;14.282;2023-06-10T04:11:51;0.70;;;0.70;;
28756;SDS011;44294;48.282;14.282;2023-06-10T04:14:38;0.70;;;0.70;;
28756;SDS011;44294;48.282;14.282;2023-06-10T04:17:26;0.70;;;0.70;;
28756;SDS011;44294;48.282;14.282;2023-06-10T04:20:13;0.70;;;0.70;;
28756;SDS011;44294;48.282;14.282;2023-06-10T04:23:00;0.70;;;0.70;;
28756;SDS011;44294;48.282;14.282;2023-06-10T04:25:48;0.70;;;0.70;;
28756;SDS011;44294;48.282;14.282;2023-06-10T04:28:35;0.70;;;0.70;;
28756;SDS011;44294;48.282;14.282;2023-06-10T04:31:22;0.70;;;0.70;;
28756;SDS011;44294;48.282;14.282;2023-06-10T04:34:10;0.80;;;0.80;;
28756;SDS011;44294;48.282;14.282;2023-06-10T04:36:57;0.70;;;0.70;;
28756;SDS011;44294;48.282;14.282;2023-06-10T04:39:44;0.70;;;0.70;;
28756;SDS011;44294;48.282;14.282;2023-06-10T04:42:32;0.70;;;0.70;;
28756;SDS011;44294;48.282;14.282;2023-06-10T04:45:19;0.70;;;0.70;;
28756;SDS011;44294;48.282;14.282;2023-06-10T04:48:06;0.70;;;0.70;;
28756;SDS011;44294;48.282;14.282;2023-06-10T04:50:54;0.70;;;0.70;;
28756;SDS011;44294;48.282;14.282;2023-06-10T04:53:42;0.70;;;0.70;;
28756;SDS011;44294;48.282;14.282;2023-06-10T04:56:30;0.70;;;0.70;;
28756;SDS011;44294;48.282;14.282;2023-06-10T04:59:17;0.80;;;0.80;;
28756;SDS011;44294;48.282;14.282;2023-06-10T05:02:05;0.60;;;0.60;;
28756;SDS011;44294;48.282;14.282;2023-06-10T05:04:52;0.70;;;0.70;;
28756;SDS011;44294;48.282;14.282;2023-06-10T05:07:41;0.70;;;0.70;;
28756;SDS011;44294;48.282;14.282;2023-06-10T05:10:28;0.67;;;0.67;;
28756;SDS011;44294;48.282;14.282;2023-06-10T05:13:17;0.70;;;0.70;;
28756;SDS011;44294;48.282;14.282;2023-06-10T05:16:04;0.70;;;0.70;;
28756;SDS011;44294;48.282;14.282;2023-06-10T05:18:52;0.63;;;0.63;;
28756;SDS011;44294;48.282;14.282;2023-06-10T05:21:39;0.60;;;0.60;;
28756;SDS011;44294;48.282;14.282;2023-06-10T05:24:26;0.60;;;0.60;;
28756;SDS011;44294;48.282;14.282;2023-06-10T05:27:14;0.60;;;0.60;;
28756;SDS011;44294;48.282;14.282;2023-06-10T05:30:01;0.60;;;0.60;;
28756;SDS011;44294;48.282;14.282;2023-06-10T05:32:50;0.63;;;0.63;;
28756;SDS011;44294;48.282;14.282;2023-06-10T05:35:37;0.60;;;0.60;;
28756;SDS011;44294;48.282;14.282;2023-06-10T05:38:24;0.60;;;0.60;;
28756;SDS011;44294;48.282;14.282;2023-06-10T05:41:12;0.60;;;0.60;;
28756;SDS011;44294;48.282;14.282;2023-06-10T05:43:59;0.60;;;0.60;;
28756;SDS011;44294;48.282;14.282;2023-06-10T05:46:46;0.60;;;0.60;;
28756;SDS011;44294;48.282;14.282;2023-06-10T05:49:34;0.60;;;0.60;;
28756;SDS011;44294;48.282;14.282;2023-06-10T05:52:21;0.60;;;0.60;;
28756;SDS011;44294;48.282;14.282;2023-06-10T05:55:09;0.70;;;0.70;;
28756;SDS011;44294;48.282;14.282;2023-06-10T05:58:01;0.70;;;0.70;;
28756;SDS011;44294;48.282;14.282;2023-06-10T06:00:47;0.60;;;0.60;;
28756;SDS011;44294;48.282;14.282;2023-06-10T06:03:35;0.60;;;0.60;;
28756;SDS011;44294;48.282;14.282;2023-06-10T06:06:22;0.60;;;0.60;;
28756;SDS011;44294;48.282;14.282;2023-06-10T06:09:10;0.70;;;0.70;;
28756;SDS011;44294;48.282;14.282;2023-06-10T06:11:57;0.60;;;0.60;;
28756;SDS011;44294;48.282;14.282;2023-06-10T06:14:44;0.60;;;0.60;;
28756;SDS011;44294;48.282;14.282;2023-06-10T06:17:32;0.60;;;0.60;;
28756;SDS011;44294;48.282;14.282;2023-06-10T06:20:19;0.60;;;0.60;;
28756;SDS011;44294;48.282;14.282;2023-06-10T06:23:07;0.60;;;0.60;;
28756;SDS011;44294;48.282;14.282;2023-06-10T06:25:56;0.60;;;0.60;;
28756;SDS011;44294;48.282;14.282;2023-06-10T06:28:43;0.67;;;0.67;;
28756;SDS011;44294;48.282;14.282;2023-06-10T06:31:31;0.60;;;0.60;;
28756;SDS011;44294;48.282;14.282;2023-06-10T06:34:18;0.70;;;0.70;;
28756;SDS011;44294;48.282;14.282;2023-06-10T06:37:06;0.50;;;0.50;;
28756;SDS011;44294;48.282;14.282;2023-06-10T06:39:53;0.60;;;0.60;;
28756;SDS011;44294;48.282;14.282;2023-06-10T06:42:41;0.50;;;0.50;;
28756;SDS011;44294;48.282;14.282;2023-06-10T06:45:28;0.60;;;0.60;;
28756;SDS011;44294;48.282;14.282;2023-06-10T06:48:15;0.60;;;0.60;;
28756;SDS011;44294;48.282;14.282;2023-06-10T06:51:03;0.60;;;0.60;;
28756;SDS011;44294;48.282;14.282;2023-06-10T06:53:51;0.60;;;0.60;;
28756;SDS011;44294;48.282;14.282;2023-06-10T06:56:40;0.60;;;0.60;;
28756;SDS011;44294;48.282;14.282;2023-06-10T06:59:27;0.60;;;0.60;;
28756;SDS011;44294;48.282;14.282;2023-06-10T07:02:14;0.50;;;0.50;;
28756;SDS011;44294;48.282;14.282;2023-06-10T07:05:02;0.63;;;0.63;;
28756;SDS011;44294;48.282;14.282;2023-06-10T07:07:49;0.60;;;0.60;;
28756;SDS011;44294;48.282;14.282;2023-06-10T07:10:38;0.60;;;0.60;;
28756;SDS011;44294;48.282;14.282;2023-06-10T07:13:26;0.60;;;0.60;;
28756;SDS011;44294;48.282;14.282;2023-06-10T07:16:13;0.60;;;0.60;;
28756;SDS011;44294;48.282;14.282;2023-06-10T07:19:01;0.60;;;0.60;;
28756;SDS011;44294;48.282;14.282;2023-06-10T07:21:48;0.60;;;0.60;;
28756;SDS011;44294;48.282;14.282;2023-06-10T07:24:35;0.60;;;0.60;;
28756;SDS011;44294;48.282;14.282;2023-06-10T07:27:22;0.60;;;0.60;;
28756;SDS011;44294;48.282;14.282;2023-06-10T07:30:10;0.50;;;0.50;;
28756;SDS011;44294;48.282;14.282;2023-06-10T07:32:57;0.60;;;0.60;;
28756;SDS011;44294;48.282;14.282;2023-06-10T07:35:45;0.50;;;0.50;;
28756;SDS011;44294;48.282;14.282;2023-06-10T07:38:32;0.60;;;0.60;;
28756;SDS011;44294;48.282;14.282;2023-06-10T07:41:20;0.50;;;0.50;;
28756;SDS011;44294;48.282;14.282;2023-06-10T07:44:07;0.50;;;0.50;;
28756;SDS011;44294;48.282;14.282;2023-06-10T07:46:54;0.50;;;0.50;;
28756;SDS011;44294;48.282;14.282;2023-06-10T07:49:44;0.60;;;0.60;;
28756;SDS011;44294;48.282;14.282;2023-06-10T07:52:31;0.50;;;0.50;;
28756;SDS011;44294;48.282;14.282;2023-06-10T07:55:18;0.50;;;0.50;;
28756;SDS011;44294;48.282;14.282;2023-06-10T07:58:05;0.60;;;0.60;;
28756;SDS011;44294;48.282;14.282;2023-06-10T08:00:53;0.60;;;0.60;;
28756;SDS011;44294;48.282;14.282;2023-06-10T08:03:41;0.50;;;0.50;;
28756;SDS011;44294;48.282;14.282;2023-06-10T08:06:29;0.50;;;0.50;;
28756;SDS011;44294;48.282;14.282;2023-06-10T08:09:17;0.50;;;0.50;;
28756;SDS011;44294;48.282;14.282;2023-06-10T08:12:05;0.50;;;0.50;;
28756;SDS011;44294;48.282;14.282;2023-06-10T08:14:52;0.60;;;0.60;;
28756;SDS011;44294;48.282;14.282;2023-06-10T08:17:41;0.60;;;0.60;;
28756;SDS011;44294;48.282;14.282;2023-06-10T08:20:28;0.60;;;0.60;;
28756;SDS011;44294;48.282;14.282;2023-06-10T08:23:15;0.50;;;0.50;;
28756;SDS011;44294;48.282;14.282;2023-06-10T08:26:03;0.50;;;0.50;;
28756;SDS011;44294;48.282;14.282;2023-06-10T08:28:50;0.50;;;0.50;;
28756;SDS011;44294;48.282;14.282;2023-06-10T08:31:40;0.50;;;0.50;;
28756;SDS011;44294;48.282;14.282;2023-06-10T08:34:26;0.50;;;0.50;;
28756;SDS011;44294;48.282;14.282;2023-06-10T08:37:14;0.60;;;0.60;;
28756;SDS011;44294;48.282;14.282;2023-06-10T08:40:01;0.60;;;0.60;;
28756;SDS011;44294;48.282;14.282;2023-06-10T08:42:49;0.50;;;0.50;;
28756;SDS011;44294;48.282;14.282;2023-06-10T08:45:37;0.50;;;0.50;;
28756;SDS011;44294;48.282;14.282;2023-06-10T08:48:25;0.50;;;0.50;;
28756;SDS011;44294;48.282;14.282;2023-06-10T08:51:14;0.50;;;0.50;;
28756;SDS011;44294;48.282;14.282;2023-06-10T08:54:04;0.50;;;0.50;;
28756;SDS011;44294;48.282;14.282;2023-06-10T08:56:51;0.50;;;0.50;;
28756;SDS011;44294;48.282;14.282;2023-06-10T08:59:40;0.50;;;0.50;;
28756;SDS011;44294;48.282;14.282;2023-06-10T09:02:28;0.50;;;0.50;;
28756;SDS011;44294;48.282;14.282;2023-06-10T09:05:15;0.50;;;0.50;;
28756;SDS011;44294;48.282;14.282;2023-06-10T09:08:03;0.50;;;0.50;;
28756;SDS011;44294;48.282;14.282;2023-06-10T09:10:50;0.50;;;0.50;;
28756;SDS011;44294;48.282;14.282;2023-06-10T09:13:38;0.50;;;0.50;;
28756;SDS011;44294;48.282;14.282;2023-06-10T09:16:25;0.50;;;0.50;;
28756;SDS011;44294;48.282;14.282;2023-06-10T09:19:12;0.50;;;0.50;;
28756;SDS011;44294;48.282;14.282;2023-06-10T09:22:01;0.50;;;0.50;;
28756;SDS011;44294;48.282;14.282;2023-06-10T09:24:48;0.50;;;0.50;;
28756;SDS011;44294;48.282;14.282;2023-06-10T09:30:35;0.50;;;0.50;;
28756;SDS011;44294;48.282;14.282;2023-06-10T09:33:23;0.50;;;0.50;;
28756;SDS011;44294;48.282;14.282;2023-06-10T09:36:21;0.50;;;0.50;;
28756;SDS011;44294;48.282;14.282;2023-06-10T09:39:02;0.50;;;0.50;;
28756;SDS011;44294;48.282;14.282;2023-06-10T09:41:49;0.50;;;0.50;;
28756;SDS011;44294;48.282;14.282;2023-06-10T09:44:36;0.50;;;0.50;;
28756;SDS011;44294;48.282;14.282;2023-06-10T09:47:26;0.50;;;0.50;;
28756;SDS011;44294;48.282;14.282;2023-06-10T09:50:13;0.50;;;0.50;;
28756;SDS011;44294;48.282;14.282;2023-06-10T09:53:01;0.50;;;0.50;;
28756;SDS011;44294;48.282;14.282;2023-06-10T09:55:51;0.50;;;0.50;;
28756;SDS011;44294;48.282;14.282;2023-06-10T09:58:39;0.50;;;0.50;;
28756;SDS011;44294;48.282;14.282;2023-06-10T10:01:28;0.50;;;0.50;;
28756;SDS011;44294;48.282;14.282;2023-06-10T10:04:22;0.60;;;0.60;;
28756;SDS011;44294;48.282;14.282;2023-06-10T10:07:05;0.50;;;0.50;;
28756;SDS011;44294;48.282;14.282;2023-06-10T10:09:54;0.50;;;0.50;;
28756;SDS011;44294;48.282;14.282;2023-06-10T10:12:42;0.50;;;0.50;;
28756;SDS011;44294;48.282;14.282;2023-06-10T10:15:31;0.50;;;0.50;;
28756;SDS011;44294;48.282;14.282;2023-06-10T10:18:19;0.57;;;0.57;;
28756;SDS011;44294;48.282;14.282;2023-06-10T10:21:11;0.50;;;0.50;;
28756;SDS011;44294;48.282;14.282;2023-06-10T10:24:00;0.50;;;0.50;;
28756;SDS011;44294;48.282;14.282;2023-06-10T10:26:46;0.50;;;0.50;;
28756;SDS011;44294;48.282;14.282;2023-06-10T10:29:39;0.50;;;0.50;;
28756;SDS011;44294;48.282;14.282;2023-06-10T10:32:26;0.50;;;0.50;;
28756;SDS011;44294;48.282;14.282;2023-06-10T10:35:14;0.50;;;0.50;;
28756;SDS011;44294;48.282;14.282;2023-06-10T10:38:01;0.50;;;0.50;;
28756;SDS011;44294;48.282;14.282;2023-06-10T10:40:49;0.50;;;0.50;;
28756;SDS011;44294;48.282;14.282;2023-06-10T10:43:37;0.50;;;0.50;;
28756;SDS011;44294;48.282;14.282;2023-06-10T10:46:25;0.50;;;0.50;;
28756;SDS011;44294;48.282;14.282;2023-06-10T10:49:13;0.50;;;0.50;;
28756;SDS011;44294;48.282;14.282;2023-06-10T10:52:01;0.50;;;0.50;;
28756;SDS011;44294;48.282;14.282;2023-06-10T10:54:50;0.50;;;0.50;;
28756;SDS011;44294;48.282;14.282;2023-06-10T10:57:39;0.50;;;0.50;;
28756;SDS011;44294;48.282;14.282;2023-06-10T11:00:33;0.50;;;0.50;;
28756;SDS011;44294;48.282;14.282;2023-06-10T11:03:21;0.50;;;0.50;;
28756;SDS011;44294;48.282;14.282;2023-06-10T11:06:11;0.50;;;0.50;;
28756;SDS011;44294;48.282;14.282;2023-06-10T11:08:57;0.50;;;0.50;;
28756;SDS011;44294;48.282;14.282;2023-06-10T11:11:49;0.43;;;0.43;;
28756;SDS011;44294;48.282;14.282;2023-06-10T11:14:35;0.50;;;0.50;;
28756;SDS011;44294;48.282;14.282;2023-06-10T11:17:23;0.50;;;0.50;;
28756;SDS011;44294;48.282;14.282;2023-06-10T11:20:10;0.50;;;0.50;;
28756;SDS011;44294;48.282;14.282;2023-06-10T11:23:01;0.50;;;0.50;;
28756;SDS011;44294;48.282;14.282;2023-06-10T11:25:49;0.60;;;0.60;;
28756;SDS011;44294;48.282;14.282;2023-06-10T11:28:36;0.50;;;0.50;;
28756;SDS011;44294;48.282;14.282;2023-06-10T11:31:27;0.53;;;0.53;;
28756;SDS011;44294;48.282;14.282;2023-06-10T11:34:15;0.50;;;0.50;;
28756;SDS011;44294;48.282;14.282;2023-06-10T11:37:04;0.50;;;0.50;;
28756;SDS011;44294;48.282;14.282;2023-06-10T11:39:54;0.50;;;0.50;;
28756;SDS011;44294;48.282;14.282;2023-06-10T11:42:42;0.50;;;0.50;;
28756;SDS011;44294;48.282;14.282;2023-06-10T11:45:30;0.50;;;0.50;;
28756;SDS011;44294;48.282;14.282;2023-06-10T11:48:17;0.40;;;0.40;;
28756;SDS011;44294;48.282;14.282;2023-06-10T11:51:06;0.50;;;0.50;;
28756;SDS011;44294;48.282;14.282;2023-06-10T11:53:54;0.60;;;0.60;;
28756;SDS011;44294;48.282;14.282;2023-06-10T11:56:41;0.50;;;0.50;;
28756;SDS011;44294;48.282;14.282;2023-06-10T11:59:29;0.50;;;0.50;;
28756;SDS011;44294;48.282;14.282;2023-06-10T12:02:17;0.50;;;0.50;;
28756;SDS011;44294;48.282;14.282;2023-06-10T12:05:16;0.50;;;0.50;;
28756;SDS011;44294;48.282;14.282;2023-06-10T12:08:09;0.50;;;0.50;;
28756;SDS011;44294;48.282;14.282;2023-06-10T12:10:57;0.50;;;0.50;;
28756;SDS011;44294;48.282;14.282;2023-06-10T12:13:48;0.50;;;0.50;;
28756;SDS011;44294;48.282;14.282;2023-06-10T12:16:35;0.50;;;0.50;;
28756;SDS011;44294;48.282;14.282;2023-06-10T12:19:23;0.53;;;0.53;;
28756;SDS011;44294;48.282;14.282;2023-06-10T12:22:10;0.50;;;0.50;;
28756;SDS011;44294;48.282;14.282;2023-06-10T12:24:58;0.50;;;0.50;;
28756;SDS011;44294;48.282;14.282;2023-06-10T12:27:52;0.50;;;0.50;;
28756;SDS011;44294;48.282;14.282;2023-06-10T12:30:40;0.50;;;0.50;;
28756;SDS011;44294;48.282;14.282;2023-06-10T12:33:27;0.50;;;0.50;;
28756;SDS011;44294;48.282;14.282;2023-06-10T12:36:17;0.50;;;0.50;;
28756;SDS011;44294;48.282;14.282;2023-06-10T12:39:04;0.50;;;0.50;;
28756;SDS011;44294;48.282;14.282;2023-06-10T12:41:52;0.60;;;0.60;;
28756;SDS011;44294;48.282;14.282;2023-06-10T12:44:40;0.60;;;0.60;;
28756;SDS011;44294;48.282;14.282;2023-06-10T12:47:30;0.60;;;0.60;;
28756;SDS011;44294;48.282;14.282;2023-06-10T12:50:19;0.60;;;0.60;;
28756;SDS011;44294;48.282;14.282;2023-06-10T12:53:06;0.60;;;0.60;;
28756;SDS011;44294;48.282;14.282;2023-06-10T12:55:53;0.50;;;0.50;;
28756;SDS011;44294;48.282;14.282;2023-06-10T12:58:41;0.53;;;0.53;;
28756;SDS011;44294;48.282;14.282;2023-06-10T13:01:29;0.50;;;0.50;;
28756;SDS011;44294;48.282;14.282;2023-06-10T13:04:17;0.60;;;0.60;;
28756;SDS011;44294;48.282;14.282;2023-06-10T13:07:05;0.50;;;0.50;;
28756;SDS011;44294;48.282;14.282;2023-06-10T13:09:54;0.60;;;0.60;;
28756;SDS011;44294;48.282;14.282;2023-06-10T13:12:41;0.50;;;0.50;;
28756;SDS011;44294;48.282;14.282;2023-06-10T13:15:29;0.50;;;0.50;;
28756;SDS011;44294;48.282;14.282;2023-06-10T13:18:16;0.50;;;0.50;;
28756;SDS011;44294;48.282;14.282;2023-06-10T13:21:05;0.60;;;0.60;;
28756;SDS011;44294;48.282;14.282;2023-06-10T13:23:53;0.60;;;0.60;;
28756;SDS011;44294;48.282;14.282;2023-06-10T13:26:40;0.50;;;0.50;;
28756;SDS011;44294;48.282;14.282;2023-06-10T13:29:27;0.50;;;0.50;;
28756;SDS011;44294;48.282;14.282;2023-06-10T13:32:15;0.57;;;0.57;;
28756;SDS011;44294;48.282;14.282;2023-06-10T13:35:02;0.60;;;0.60;;
28756;SDS011;44294;48.282;14.282;2023-06-10T13:37:49;0.60;;;0.60;;
28756;SDS011;44294;48.282;14.282;2023-06-10T13:40:37;0.50;;;0.50;;
28756;SDS011;44294;48.282;14.282;2023-06-10T13:43:24;0.50;;;0.50;;
28756;SDS011;44294;48.282;14.282;2023-06-10T13:46:11;0.60;;;0.60;;
28756;SDS011;44294;48.282;14.282;2023-06-10T13:48:59;0.60;;;0.60;;
28756;SDS011;44294;48.282;14.282;2023-06-10T13:51:46;0.70;;;0.70;;
28756;SDS011;44294;48.282;14.282;2023-06-10T13:54:34;0.60;;;0.60;;
28756;SDS011;44294;48.282;14.282;2023-06-10T13:57:24;0.60;;;0.60;;
28756;SDS011;44294;48.282;14.282;2023-06-10T14:00:11;0.60;;;0.60;;
28756;SDS011;44294;48.282;14.282;2023-06-10T14:02:59;0.60;;;0.60;;
28756;SDS011;44294;48.282;14.282;2023-06-10T14:05:46;0.70;;;0.70;;
28756;SDS011;44294;48.282;14.282;2023-06-10T14:08:34;0.60;;;0.60;;
28756;SDS011;44294;48.282;14.282;2023-06-10T14:11:21;0.60;;;0.60;;
28756;SDS011;44294;48.282;14.282;2023-06-10T14:14:08;0.50;;;0.50;;
28756;SDS011;44294;48.282;14.282;2023-06-10T14:16:56;0.60;;;0.60;;
28756;SDS011;44294;48.282;14.282;2023-06-10T14:19:43;0.60;;;0.60;;
28756;SDS011;44294;48.282;14.282;2023-06-10T14:22:31;0.60;;;0.60;;
28756;SDS011;44294;48.282;14.282;2023-06-10T14:25:18;0.60;;;0.60;;
28756;SDS011;44294;48.282;14.282;2023-06-10T14:28:06;0.60;;;0.60;;
28756;SDS011;44294;48.282;14.282;2023-06-10T14:30:53;0.60;;;0.60;;
28756;SDS011;44294;48.282;14.282;2023-06-10T14:33:40;0.50;;;0.50;;
28756;SDS011;44294;48.282;14.282;2023-06-10T14:36:29;0.60;;;0.60;;
28756;SDS011;44294;48.282;14.282;2023-06-10T14:39:17;0.60;;;0.60;;
28756;SDS011;44294;48.282;14.282;2023-06-10T14:42:04;0.60;;;0.60;;
28756;SDS011;44294;48.282;14.282;2023-06-10T14:44:52;0.60;;;0.60;;
28756;SDS011;44294;48.282;14.282;2023-06-10T14:47:39;0.50;;;0.50;;
28756;SDS011;44294;48.282;14.282;2023-06-10T14:50:27;0.50;;;0.50;;
28756;SDS011;44294;48.282;14.282;2023-06-10T14:53:14;0.60;;;0.60;;
28756;SDS011;44294;48.282;14.282;2023-06-10T14:56:02;0.60;;;0.60;;
28756;SDS011;44294;48.282;14.282;2023-06-10T14:58:49;0.60;;;0.60;;
28756;SDS011;44294;48.282;14.282;2023-06-10T15:01:36;0.57;;;0.57;;
28756;SDS011;44294;48.282;14.282;2023-06-10T15:04:24;0.60;;;0.60;;
28756;SDS011;44294;48.282;14.282;2023-06-10T15:07:11;0.50;;;0.50;;
28756;SDS011;44294;48.282;14.282;2023-06-10T15:10:00;0.50;;;0.50;;
28756;SDS011;44294;48.282;14.282;2023-06-10T15:12:47;0.50;;;0.50;;
28756;SDS011;44294;48.282;14.282;2023-06-10T15:15:36;0.50;;;0.50;;
28756;SDS011;44294;48.282;14.282;2023-06-10T15:18:24;0.50;;;0.50;;
28756;SDS011;44294;48.282;14.282;2023-06-10T15:21:11;0.50;;;0.50;;
28756;SDS011;44294;48.282;14.282;2023-06-10T15:23:59;0.50;;;0.50;;
28756;SDS011;44294;48.282;14.282;2023-06-10T15:26:46;0.50;;;0.50;;
28756;SDS011;44294;48.282;14.282;2023-06-10T15:29:33;0.50;;;0.50;;
28756;SDS011;44294;48.282;14.282;2023-06-10T15:32:21;0.50;;;0.50;;
28756;SDS011;44294;48.282;14.282;2023-06-10T15:35:08;0.50;;;0.50;;
28756;SDS011;44294;48.282;14.282;2023-06-10T15:37:56;0.53;;;0.53;;
28756;SDS011;44294;48.282;14.282;2023-06-10T15:40:43;0.50;;;0.50;;
28756;SDS011;44294;48.282;14.282;2023-06-10T15:43:30;0.50;;;0.50;;
28756;SDS011;44294;48.282;14.282;2023-06-10T15:46:17;0.50;;;0.50;;
28756;SDS011;44294;48.282;14.282;2023-06-10T15:49:05;0.50;;;0.50;;
28756;SDS011;44294;48.282;14.282;2023-06-10T15:51:52;0.60;;;0.60;;
28756;SDS011;44294;48.282;14.282;2023-06-10T15:54:39;0.57;;;0.57;;
28756;SDS011;44294;48.282;14.282;2023-06-10T15:57:27;0.50;;;0.50;;
28756;SDS011;44294;48.282;14.282;2023-06-10T16:00:14;0.50;;;0.50;;
28756;SDS011;44294;48.282;14.282;2023-06-10T16:03:02;0.50;;;0.50;;
28756;SDS011;44294;48.282;14.282;2023-06-10T16:05:49;0.50;;;0.50;;
28756;SDS011;44294;48.282;14.282;2023-06-10T16:08:37;0.50;;;0.50;;
28756;SDS011;44294;48.282;14.282;2023-06-10T16:11:24;0.50;;;0.50;;
28756;SDS011;44294;48.282;14.282;2023-06-10T16:14:12;0.60;;;0.60;;
28756;SDS011;44294;48.282;14.282;2023-06-10T16:17:00;0.60;;;0.60;;
28756;SDS011;44294;48.282;14.282;2023-06-10T16:19:47;0.60;;;0.60;;
28756;SDS011;44294;48.282;14.282;2023-06-10T16:22:34;0.60;;;0.60;;
28756;SDS011;44294;48.282;14.282;2023-06-10T16:25:22;0.60;;;0.60;;
28756;SDS011;44294;48.282;14.282;2023-06-10T16:28:10;0.60;;;0.60;;
28756;SDS011;44294;48.282;14.282;2023-06-10T16:30:57;0.60;;;0.60;;
28756;SDS011;44294;48.282;14.282;2023-06-10T16:33:44;0.50;;;0.50;;
28756;SDS011;44294;48.282;14.282;2023-06-10T16:36:32;0.60;;;0.60;;
28756;SDS011;44294;48.282;14.282;2023-06-10T16:39:19;0.60;;;0.60;;
28756;SDS011;44294;48.282;14.282;2023-06-10T16:42:06;0.60;;;0.60;;
28756;SDS011;44294;48.282;14.282;2023-06-10T16:44:54;0.60;;;0.60;;